sensor_id;sensor_type;location;lat;lon;timestamp;temperature;humidity
2579;DHT22;1299;48.282;14.398;2022-11-15T00:00:48;6.50;99.90
2579;DHT22;1299;48.282;14.398;2022-11-15T00:03:15;6.50;99.90
2579;DHT22;1299;48.282;14.398;2022-11-15T00:05:43;6.50;99.90
2579;DHT22;1299;48.282;14.398;2022-11-15T00:08:11;6.50;99.90
2579;DHT22;1299;48.282;14.398;2022-11-15T00:10:39;6.50;99.90
2579;DHT22;1299;48.282;14.398;2022-11-15T00:13:07;6.60;99.90
2579;DHT22;1299;48.282;14.398;2022-11-15T00:15:37;6.60;99.90
2579;DHT22;1299;48.282;14.398;2022-11-15T00:18:06;6.60;99.90
2579;DHT22;1299;48.282;14.398;2022-11-15T00:20:34;6.60;99.90
2579;DHT22;1299;48.282;14.398;2022-11-15T00:23:03;6.60;99.90
2579;DHT22;1299;48.282;14.398;2022-11-15T00:25:30;6.60;99.90
2579;DHT22;1299;48.282;14.398;2022-11-15T00:27:58;6.60;99.90
2579;DHT22;1299;48.282;14.398;2022-11-15T00:30:26;6.60;99.90
2579;DHT22;1299;48.282;14.398;2022-11-15T00:32:55;6.60;99.90
2579;DHT22;1299;48.282;14.398;2022-11-15T00:35:23;6.60;99.90
2579;DHT22;1299;48.282;14.398;2022-11-15T00:37:52;6.50;99.90
2579;DHT22;1299;48.282;14.398;2022-11-15T00:40:19;6.50;99.90
2579;DHT22;1299;48.282;14.398;2022-11-15T00:42:47;6.50;99.90
2579;DHT22;1299;48.282;14.398;2022-11-15T00:45:14;6.60;99.90
2579;DHT22;1299;48.282;14.398;2022-11-15T00:47:44;6.60;99.90
2579;DHT22;1299;48.282;14.398;2022-11-15T00:50:13;6.50;99.90
2579;DHT22;1299;48.282;14.398;2022-11-15T00:52:41;6.40;99.90
2579;DHT22;1299;48.282;14.398;2022-11-15T00:55:12;6.30;99.90
2579;DHT22;1299;48.282;14.398;2022-11-15T00:57:40;6.30;99.90
2579;DHT22;1299;48.282;14.398;2022-11-15T01:00:09;6.30;99.90
2579;DHT22;1299;48.282;14.398;2022-11-15T01:02:37;6.30;99.90
2579;DHT22;1299;48.282;14.398;2022-11-15T01:05:06;6.30;99.90
2579;DHT22;1299;48.282;14.398;2022-11-15T01:07:35;6.20;99.90
2579;DHT22;1299;48.282;14.398;2022-11-15T01:10:02;6.10;99.90
2579;DHT22;1299;48.282;14.398;2022-11-15T01:12:30;6.00;99.90
2579;DHT22;1299;48.282;14.398;2022-11-15T01:14:57;5.90;99.90
2579;DHT22;1299;48.282;14.398;2022-11-15T01:17:25;5.90;99.90
2579;DHT22;1299;48.282;14.398;2022-11-15T01:19:52;5.80;99.90
2579;DHT22;1299;48.282;14.398;2022-11-15T01:22:20;5.80;99.90
2579;DHT22;1299;48.282;14.398;2022-11-15T01:24:49;5.80;99.90
2579;DHT22;1299;48.282;14.398;2022-11-15T01:27:16;5.80;99.90
2579;DHT22;1299;48.282;14.398;2022-11-15T01:29:44;5.80;99.90
2579;DHT22;1299;48.282;14.398;2022-11-15T01:32:11;5.80;99.90
2579;DHT22;1299;48.282;14.398;2022-11-15T01:34:38;5.80;99.90
2579;DHT22;1299;48.282;14.398;2022-11-15T01:37:05;5.90;99.90
2579;DHT22;1299;48.282;14.398;2022-11-15T01:39:33;5.80;99.90
2579;DHT22;1299;48.282;14.398;2022-11-15T01:42:02;5.80;99.90
2579;DHT22;1299;48.282;14.398;2022-11-15T01:44:39;5.80;99.90
2579;DHT22;1299;48.282;14.398;2022-11-15T01:47:10;5.80;99.90
2579;DHT22;1299;48.282;14.398;2022-11-15T01:49:41;5.80;99.90
2579;DHT22;1299;48.282;14.398;2022-11-15T01:52:14;5.80;99.90
2579;DHT22;1299;48.282;14.398;2022-11-15T01:54:44;5.90;99.90
2579;DHT22;1299;48.282;14.398;2022-11-15T01:57:13;5.90;99.90
2579;DHT22;1299;48.282;14.398;2022-11-15T01:59:43;5.90;99.90
2579;DHT22;1299;48.282;14.398;2022-11-15T02:02:12;5.90;99.90
2579;DHT22;1299;48.282;14.398;2022-11-15T02:04:42;5.90;99.90
2579;DHT22;1299;48.282;14.398;2022-11-15T02:07:11;6.00;99.90
2579;DHT22;1299;48.282;14.398;2022-11-15T02:09:40;6.00;99.90
2579;DHT22;1299;48.282;14.398;2022-11-15T02:12:09;6.00;99.90
2579;DHT22;1299;48.282;14.398;2022-11-15T02:14:41;6.00;99.90
2579;DHT22;1299;48.282;14.398;2022-11-15T02:17:21;6.00;99.90
2579;DHT22;1299;48.282;14.398;2022-11-15T02:20:20;5.90;99.90
2579;DHT22;1299;48.282;14.398;2022-11-15T02:23:11;5.90;99.90
2579;DHT22;1299;48.282;14.398;2022-11-15T02:25:54;5.80;99.90
2579;DHT22;1299;48.282;14.398;2022-11-15T02:28:44;5.80;99.90
2579;DHT22;1299;48.282;14.398;2022-11-15T02:31:22;5.80;99.90
2579;DHT22;1299;48.282;14.398;2022-11-15T02:33:59;5.70;99.90
2579;DHT22;1299;48.282;14.398;2022-11-15T02:36:36;5.60;99.90
2579;DHT22;1299;48.282;14.398;2022-11-15T02:39:13;5.50;99.90
2579;DHT22;1299;48.282;14.398;2022-11-15T02:41:45;5.50;99.90
2579;DHT22;1299;48.282;14.398;2022-11-15T02:44:19;5.50;99.90
2579;DHT22;1299;48.282;14.398;2022-11-15T02:46:51;5.50;99.90
2579;DHT22;1299;48.282;14.398;2022-11-15T02:49:38;5.50;99.90
2579;DHT22;1299;48.282;14.398;2022-11-15T02:52:06;5.50;99.90
2579;DHT22;1299;48.282;14.398;2022-11-15T02:54:34;5.50;99.90
2579;DHT22;1299;48.282;14.398;2022-11-15T02:57:05;5.60;99.90
2579;DHT22;1299;48.282;14.398;2022-11-15T03:00:04;5.60;99.90
2579;DHT22;1299;48.282;14.398;2022-11-15T03:03:02;5.60;99.90
2579;DHT22;1299;48.282;14.398;2022-11-15T03:05:37;5.60;99.90
2579;DHT22;1299;48.282;14.398;2022-11-15T03:08:10;5.60;99.90
2579;DHT22;1299;48.282;14.398;2022-11-15T03:10:46;5.60;99.90
2579;DHT22;1299;48.282;14.398;2022-11-15T03:13:27;5.60;99.90
2579;DHT22;1299;48.282;14.398;2022-11-15T03:16:01;5.60;99.90
2579;DHT22;1299;48.282;14.398;2022-11-15T03:18:34;5.60;99.90
2579;DHT22;1299;48.282;14.398;2022-11-15T03:21:05;5.60;99.90
2579;DHT22;1299;48.282;14.398;2022-11-15T03:23:35;5.60;99.90
2579;DHT22;1299;48.282;14.398;2022-11-15T03:26:05;5.50;99.90
2579;DHT22;1299;48.282;14.398;2022-11-15T03:28:36;5.50;99.90
2579;DHT22;1299;48.282;14.398;2022-11-15T03:31:05;5.50;99.90
2579;DHT22;1299;48.282;14.398;2022-11-15T03:34:03;5.50;99.90
2579;DHT22;1299;48.282;14.398;2022-11-15T03:36:34;5.50;99.90
2579;DHT22;1299;48.282;14.398;2022-11-15T03:39:05;5.50;99.90
2579;DHT22;1299;48.282;14.398;2022-11-15T03:41:39;5.50;99.90
2579;DHT22;1299;48.282;14.398;2022-11-15T03:44:15;5.40;99.90
2579;DHT22;1299;48.282;14.398;2022-11-15T03:46:49;5.40;99.90
2579;DHT22;1299;48.282;14.398;2022-11-15T03:49:24;5.40;99.90
2579;DHT22;1299;48.282;14.398;2022-11-15T03:51:53;5.40;99.90
2579;DHT22;1299;48.282;14.398;2022-11-15T03:54:20;5.40;99.90
2579;DHT22;1299;48.282;14.398;2022-11-15T03:56:47;5.40;99.90
2579;DHT22;1299;48.282;14.398;2022-11-15T03:59:15;5.30;99.90
2579;DHT22;1299;48.282;14.398;2022-11-15T04:01:42;5.30;99.90
2579;DHT22;1299;48.282;14.398;2022-11-15T04:04:09;5.30;99.90
2579;DHT22;1299;48.282;14.398;2022-11-15T04:06:38;5.30;99.90
2579;DHT22;1299;48.282;14.398;2022-11-15T04:09:06;5.30;99.90
2579;DHT22;1299;48.282;14.398;2022-11-15T04:11:33;5.30;99.90
2579;DHT22;1299;48.282;14.398;2022-11-15T04:14:00;5.40;99.90
2579;DHT22;1299;48.282;14.398;2022-11-15T04:16:28;5.50;99.90
2579;DHT22;1299;48.282;14.398;2022-11-15T04:18:55;5.40;99.90
2579;DHT22;1299;48.282;14.398;2022-11-15T04:21:37;5.40;99.90
2579;DHT22;1299;48.282;14.398;2022-11-15T04:24:22;5.50;99.90
2579;DHT22;1299;48.282;14.398;2022-11-15T04:26:49;5.50;99.90
2579;DHT22;1299;48.282;14.398;2022-11-15T04:29:17;5.40;99.90
2579;DHT22;1299;48.282;14.398;2022-11-15T04:32:03;5.30;99.90
2579;DHT22;1299;48.282;14.398;2022-11-15T04:34:31;5.30;99.90
2579;DHT22;1299;48.282;14.398;2022-11-15T04:37:01;5.20;99.90
2579;DHT22;1299;48.282;14.398;2022-11-15T04:39:42;5.30;99.90
2579;DHT22;1299;48.282;14.398;2022-11-15T04:42:10;5.30;99.90
2579;DHT22;1299;48.282;14.398;2022-11-15T04:44:38;5.40;99.90
2579;DHT22;1299;48.282;14.398;2022-11-15T04:47:06;5.30;99.90
2579;DHT22;1299;48.282;14.398;2022-11-15T04:49:33;5.30;99.90
2579;DHT22;1299;48.282;14.398;2022-11-15T04:52:02;5.20;99.90
2579;DHT22;1299;48.282;14.398;2022-11-15T04:54:29;5.10;99.90
2579;DHT22;1299;48.282;14.398;2022-11-15T04:56:56;5.10;99.90
2579;DHT22;1299;48.282;14.398;2022-11-15T04:59:23;5.10;99.90
2579;DHT22;1299;48.282;14.398;2022-11-15T05:01:51;5.10;99.90
2579;DHT22;1299;48.282;14.398;2022-11-15T05:04:18;5.00;99.90
2579;DHT22;1299;48.282;14.398;2022-11-15T05:06:49;4.90;99.90
2579;DHT22;1299;48.282;14.398;2022-11-15T05:09:19;4.80;99.90
2579;DHT22;1299;48.282;14.398;2022-11-15T05:11:46;4.80;99.90
2579;DHT22;1299;48.282;14.398;2022-11-15T05:14:14;4.70;99.90
2579;DHT22;1299;48.282;14.398;2022-11-15T05:16:41;4.70;99.90
2579;DHT22;1299;48.282;14.398;2022-11-15T05:19:09;4.70;99.90
2579;DHT22;1299;48.282;14.398;2022-11-15T05:21:37;4.30;99.90
2579;DHT22;1299;48.282;14.398;2022-11-15T05:24:05;4.40;99.90
2579;DHT22;1299;48.282;14.398;2022-11-15T05:26:35;4.60;99.90
2579;DHT22;1299;48.282;14.398;2022-11-15T05:29:02;4.70;99.90
2579;DHT22;1299;48.282;14.398;2022-11-15T05:31:29;4.70;99.90
2579;DHT22;1299;48.282;14.398;2022-11-15T05:33:58;4.60;99.90
2579;DHT22;1299;48.282;14.398;2022-11-15T05:36:31;4.50;99.90
2579;DHT22;1299;48.282;14.398;2022-11-15T05:39:01;4.50;99.90
2579;DHT22;1299;48.282;14.398;2022-11-15T05:41:34;4.50;99.90
2579;DHT22;1299;48.282;14.398;2022-11-15T05:44:05;4.40;99.90
2579;DHT22;1299;48.282;14.398;2022-11-15T05:46:35;4.40;99.90
2579;DHT22;1299;48.282;14.398;2022-11-15T05:49:06;4.30;99.90
2579;DHT22;1299;48.282;14.398;2022-11-15T05:51:35;4.30;99.90
2579;DHT22;1299;48.282;14.398;2022-11-15T05:54:02;4.30;99.90
2579;DHT22;1299;48.282;14.398;2022-11-15T05:56:30;4.20;99.90
2579;DHT22;1299;48.282;14.398;2022-11-15T05:58:59;4.20;99.90
2579;DHT22;1299;48.282;14.398;2022-11-15T06:01:27;4.20;99.90
2579;DHT22;1299;48.282;14.398;2022-11-15T06:03:54;4.20;99.90
2579;DHT22;1299;48.282;14.398;2022-11-15T06:06:21;4.30;99.90
2579;DHT22;1299;48.282;14.398;2022-11-15T06:08:49;4.20;99.90
2579;DHT22;1299;48.282;14.398;2022-11-15T06:11:16;4.50;99.90
2579;DHT22;1299;48.282;14.398;2022-11-15T06:13:43;4.70;99.90
2579;DHT22;1299;48.282;14.398;2022-11-15T06:16:12;4.70;99.90
2579;DHT22;1299;48.282;14.398;2022-11-15T06:18:39;4.50;99.90
2579;DHT22;1299;48.282;14.398;2022-11-15T06:21:06;4.70;99.90
2579;DHT22;1299;48.282;14.398;2022-11-15T06:23:34;4.80;99.90
2579;DHT22;1299;48.282;14.398;2022-11-15T06:26:03;4.80;99.90
2579;DHT22;1299;48.282;14.398;2022-11-15T06:28:31;4.80;99.90
2579;DHT22;1299;48.282;14.398;2022-11-15T06:31:02;4.80;99.90
2579;DHT22;1299;48.282;14.398;2022-11-15T06:33:31;4.70;99.90
2579;DHT22;1299;48.282;14.398;2022-11-15T06:36:01;4.70;99.90
2579;DHT22;1299;48.282;14.398;2022-11-15T06:38:28;4.70;99.90
2579;DHT22;1299;48.282;14.398;2022-11-15T06:41:01;4.50;99.90
2579;DHT22;1299;48.282;14.398;2022-11-15T06:43:28;4.50;99.90
2579;DHT22;1299;48.282;14.398;2022-11-15T06:45:56;4.20;99.90
2579;DHT22;1299;48.282;14.398;2022-11-15T06:48:24;4.40;99.90
2579;DHT22;1299;48.282;14.398;2022-11-15T06:50:53;4.50;99.90
2579;DHT22;1299;48.282;14.398;2022-11-15T06:53:21;4.60;99.90
2579;DHT22;1299;48.282;14.398;2022-11-15T06:55:48;4.60;99.90
2579;DHT22;1299;48.282;14.398;2022-11-15T06:58:15;4.70;99.90
2579;DHT22;1299;48.282;14.398;2022-11-15T07:00:43;4.70;99.90
2579;DHT22;1299;48.282;14.398;2022-11-15T07:03:10;4.60;99.90
2579;DHT22;1299;48.282;14.398;2022-11-15T07:05:37;4.50;99.90
2579;DHT22;1299;48.282;14.398;2022-11-15T07:08:06;4.60;99.90
2579;DHT22;1299;48.282;14.398;2022-11-15T07:10:33;4.60;99.90
2579;DHT22;1299;48.282;14.398;2022-11-15T07:13:00;4.40;99.90
2579;DHT22;1299;48.282;14.398;2022-11-15T07:15:27;4.40;99.90
2579;DHT22;1299;48.282;14.398;2022-11-15T07:17:55;4.60;99.90
2579;DHT22;1299;48.282;14.398;2022-11-15T07:20:22;4.70;99.90
2579;DHT22;1299;48.282;14.398;2022-11-15T07:22:49;4.70;99.90
2579;DHT22;1299;48.282;14.398;2022-11-15T07:25:18;5.00;99.90
2579;DHT22;1299;48.282;14.398;2022-11-15T07:27:54;5.20;99.90
2579;DHT22;1299;48.282;14.398;2022-11-15T07:30:22;5.30;99.90
2579;DHT22;1299;48.282;14.398;2022-11-15T07:32:52;5.40;99.90
2579;DHT22;1299;48.282;14.398;2022-11-15T07:35:20;5.50;99.90
2579;DHT22;1299;48.282;14.398;2022-11-15T07:37:54;5.50;99.90
2579;DHT22;1299;48.282;14.398;2022-11-15T07:40:23;5.60;99.90
2579;DHT22;1299;48.282;14.398;2022-11-15T07:42:50;5.70;99.90
2579;DHT22;1299;48.282;14.398;2022-11-15T07:45:22;5.90;99.90
2579;DHT22;1299;48.282;14.398;2022-11-15T07:47:51;5.90;99.90
2579;DHT22;1299;48.282;14.398;2022-11-15T07:50:19;6.00;99.90
2579;DHT22;1299;48.282;14.398;2022-11-15T07:52:46;6.20;99.90
2579;DHT22;1299;48.282;14.398;2022-11-15T07:55:14;6.20;99.90
2579;DHT22;1299;48.282;14.398;2022-11-15T07:57:42;6.20;99.90
2579;DHT22;1299;48.282;14.398;2022-11-15T08:00:11;6.30;99.90
2579;DHT22;1299;48.282;14.398;2022-11-15T08:02:38;6.30;99.90
2579;DHT22;1299;48.282;14.398;2022-11-15T08:05:06;6.30;99.90
2579;DHT22;1299;48.282;14.398;2022-11-15T08:07:33;6.40;99.90
2579;DHT22;1299;48.282;14.398;2022-11-15T08:10:01;6.40;99.90
2579;DHT22;1299;48.282;14.398;2022-11-15T08:12:29;6.40;99.90
2579;DHT22;1299;48.282;14.398;2022-11-15T08:14:58;6.30;99.90
2579;DHT22;1299;48.282;14.398;2022-11-15T08:17:25;6.50;99.90
2579;DHT22;1299;48.282;14.398;2022-11-15T08:19:52;6.60;99.90
2579;DHT22;1299;48.282;14.398;2022-11-15T08:22:20;6.70;99.90
2579;DHT22;1299;48.282;14.398;2022-11-15T08:24:47;6.80;99.90
2579;DHT22;1299;48.282;14.398;2022-11-15T08:27:14;6.60;99.90
2579;DHT22;1299;48.282;14.398;2022-11-15T08:29:43;6.80;99.90
2579;DHT22;1299;48.282;14.398;2022-11-15T08:32:12;6.20;99.90
2579;DHT22;1299;48.282;14.398;2022-11-15T08:34:39;6.50;99.90
2579;DHT22;1299;48.282;14.398;2022-11-15T08:37:07;6.70;99.90
2579;DHT22;1299;48.282;14.398;2022-11-15T08:39:34;6.80;99.90
2579;DHT22;1299;48.282;14.398;2022-11-15T08:42:01;6.90;99.90
2579;DHT22;1299;48.282;14.398;2022-11-15T08:44:28;7.00;99.90
2579;DHT22;1299;48.282;14.398;2022-11-15T08:46:55;7.00;99.90
2579;DHT22;1299;48.282;14.398;2022-11-15T08:49:24;7.10;99.90
2579;DHT22;1299;48.282;14.398;2022-11-15T08:51:51;7.10;99.90
2579;DHT22;1299;48.282;14.398;2022-11-15T08:54:19;7.20;99.90
2579;DHT22;1299;48.282;14.398;2022-11-15T08:56:46;7.30;99.90
2579;DHT22;1299;48.282;14.398;2022-11-15T08:59:13;6.70;99.90
2579;DHT22;1299;48.282;14.398;2022-11-15T09:01:40;6.70;99.90
2579;DHT22;1299;48.282;14.398;2022-11-15T09:04:08;6.90;99.90
2579;DHT22;1299;48.282;14.398;2022-11-15T09:06:36;6.40;99.90
2579;DHT22;1299;48.282;14.398;2022-11-15T09:09:04;6.20;99.90
2579;DHT22;1299;48.282;14.398;2022-11-15T09:11:31;6.20;99.90
2579;DHT22;1299;48.282;14.398;2022-11-15T09:13:58;6.10;99.90
2579;DHT22;1299;48.282;14.398;2022-11-15T09:16:26;6.20;99.90
2579;DHT22;1299;48.282;14.398;2022-11-15T09:18:54;6.10;99.90
2579;DHT22;1299;48.282;14.398;2022-11-15T09:21:21;6.00;99.90
2579;DHT22;1299;48.282;14.398;2022-11-15T09:23:51;6.00;99.90
2579;DHT22;1299;48.282;14.398;2022-11-15T09:26:18;6.20;99.90
2579;DHT22;1299;48.282;14.398;2022-11-15T09:28:46;6.20;99.90
2579;DHT22;1299;48.282;14.398;2022-11-15T09:31:13;6.30;99.90
2579;DHT22;1299;48.282;14.398;2022-11-15T09:33:43;6.30;99.90
2579;DHT22;1299;48.282;14.398;2022-11-15T09:36:11;6.30;99.90
2579;DHT22;1299;48.282;14.398;2022-11-15T09:38:38;6.40;99.90
2579;DHT22;1299;48.282;14.398;2022-11-15T09:41:32;6.30;99.90
2579;DHT22;1299;48.282;14.398;2022-11-15T09:44:14;6.30;99.90
2579;DHT22;1299;48.282;14.398;2022-11-15T09:49:32;6.20;99.90
2579;DHT22;1299;48.282;14.398;2022-11-15T09:52:00;6.00;99.90
2579;DHT22;1299;48.282;14.398;2022-11-15T09:54:30;6.40;99.90
2579;DHT22;1299;48.282;14.398;2022-11-15T09:57:05;6.50;99.90
2579;DHT22;1299;48.282;14.398;2022-11-15T09:59:44;6.70;99.90
2579;DHT22;1299;48.282;14.398;2022-11-15T10:02:38;6.70;99.90
2579;DHT22;1299;48.282;14.398;2022-11-15T10:05:12;6.40;99.90
2579;DHT22;1299;48.282;14.398;2022-11-15T10:07:46;6.50;99.90
2579;DHT22;1299;48.282;14.398;2022-11-15T10:10:24;6.60;99.90
2579;DHT22;1299;48.282;14.398;2022-11-15T10:12:53;6.90;99.90
2579;DHT22;1299;48.282;14.398;2022-11-15T10:15:21;7.10;99.90
2579;DHT22;1299;48.282;14.398;2022-11-15T10:18:07;7.20;99.90
2579;DHT22;1299;48.282;14.398;2022-11-15T10:20:44;7.30;99.90
2579;DHT22;1299;48.282;14.398;2022-11-15T10:23:16;7.40;99.90
2579;DHT22;1299;48.282;14.398;2022-11-15T10:25:44;7.50;99.90
2579;DHT22;1299;48.282;14.398;2022-11-15T10:28:15;7.60;99.90
2579;DHT22;1299;48.282;14.398;2022-11-15T10:30:44;7.50;99.90
2579;DHT22;1299;48.282;14.398;2022-11-15T10:33:20;7.40;99.90
2579;DHT22;1299;48.282;14.398;2022-11-15T10:36:18;7.20;99.90
2579;DHT22;1299;48.282;14.398;2022-11-15T10:39:10;7.20;99.90
2579;DHT22;1299;48.282;14.398;2022-11-15T10:41:40;7.30;99.90
2579;DHT22;1299;48.282;14.398;2022-11-15T10:44:18;7.50;99.90
2579;DHT22;1299;48.282;14.398;2022-11-15T10:46:47;7.00;99.90
2579;DHT22;1299;48.282;14.398;2022-11-15T10:49:18;6.70;99.90
2579;DHT22;1299;48.282;14.398;2022-11-15T10:51:47;6.60;99.90
2579;DHT22;1299;48.282;14.398;2022-11-15T10:54:23;6.30;99.90
2579;DHT22;1299;48.282;14.398;2022-11-15T10:56:54;6.30;99.90
2579;DHT22;1299;48.282;14.398;2022-11-15T10:59:26;6.30;99.90
2579;DHT22;1299;48.282;14.398;2022-11-15T11:01:55;6.40;99.90
2579;DHT22;1299;48.282;14.398;2022-11-15T11:04:23;6.40;99.90
2579;DHT22;1299;48.282;14.398;2022-11-15T11:06:51;6.50;99.90
2579;DHT22;1299;48.282;14.398;2022-11-15T11:09:27;6.50;99.90
2579;DHT22;1299;48.282;14.398;2022-11-15T11:11:55;6.40;99.90
2579;DHT22;1299;48.282;14.398;2022-11-15T11:14:26;6.30;99.90
2579;DHT22;1299;48.282;14.398;2022-11-15T11:16:57;6.40;99.90
2579;DHT22;1299;48.282;14.398;2022-11-15T11:19:51;6.50;99.90
2579;DHT22;1299;48.282;14.398;2022-11-15T11:22:25;6.80;99.90
2579;DHT22;1299;48.282;14.398;2022-11-15T11:25:03;6.80;99.90
2579;DHT22;1299;48.282;14.398;2022-11-15T11:27:43;6.70;99.90
2579;DHT22;1299;48.282;14.398;2022-11-15T11:30:17;6.90;99.90
2579;DHT22;1299;48.282;14.398;2022-11-15T11:33:00;6.80;99.90
2579;DHT22;1299;48.282;14.398;2022-11-15T11:35:37;6.80;99.90
2579;DHT22;1299;48.282;14.398;2022-11-15T11:38:20;6.70;99.90
2579;DHT22;1299;48.282;14.398;2022-11-15T11:41:00;6.70;99.90
2579;DHT22;1299;48.282;14.398;2022-11-15T11:43:39;6.70;99.90
2579;DHT22;1299;48.282;14.398;2022-11-15T11:46:20;6.80;99.90
2579;DHT22;1299;48.282;14.398;2022-11-15T11:48:51;6.70;99.90
2579;DHT22;1299;48.282;14.398;2022-11-15T11:51:24;6.70;99.90
2579;DHT22;1299;48.282;14.398;2022-11-15T11:53:57;6.60;99.90
2579;DHT22;1299;48.282;14.398;2022-11-15T11:56:27;6.70;99.90
2579;DHT22;1299;48.282;14.398;2022-11-15T11:59:01;7.00;99.90
2579;DHT22;1299;48.282;14.398;2022-11-15T12:01:36;7.10;99.90
2579;DHT22;1299;48.282;14.398;2022-11-15T12:04:09;6.80;99.90
2579;DHT22;1299;48.282;14.398;2022-11-15T12:06:42;6.70;99.90
2579;DHT22;1299;48.282;14.398;2022-11-15T12:09:17;6.80;99.90
2579;DHT22;1299;48.282;14.398;2022-11-15T12:11:54;6.60;99.90
2579;DHT22;1299;48.282;14.398;2022-11-15T12:14:32;6.80;99.90
2579;DHT22;1299;48.282;14.398;2022-11-15T12:17:01;7.00;99.90
2579;DHT22;1299;48.282;14.398;2022-11-15T12:19:29;6.90;99.90
2579;DHT22;1299;48.282;14.398;2022-11-15T12:22:02;6.80;99.90
2579;DHT22;1299;48.282;14.398;2022-11-15T12:24:34;7.10;99.90
2579;DHT22;1299;48.282;14.398;2022-11-15T12:27:08;7.10;99.90
2579;DHT22;1299;48.282;14.398;2022-11-15T12:29:43;7.00;99.90
2579;DHT22;1299;48.282;14.398;2022-11-15T12:32:23;6.90;99.90
2579;DHT22;1299;48.282;14.398;2022-11-15T12:34:52;7.30;99.90
2579;DHT22;1299;48.282;14.398;2022-11-15T12:37:48;7.50;99.90
2579;DHT22;1299;48.282;14.398;2022-11-15T12:40:31;7.70;99.90
2579;DHT22;1299;48.282;14.398;2022-11-15T12:45:48;7.70;99.90
2579;DHT22;1299;48.282;14.398;2022-11-15T12:48:52;7.90;99.90
2579;DHT22;1299;48.282;14.398;2022-11-15T12:57:29;7.60;99.90
2579;DHT22;1299;48.282;14.398;2022-11-15T12:59:59;7.10;99.90
2579;DHT22;1299;48.282;14.398;2022-11-15T13:02:30;7.20;99.90
2579;DHT22;1299;48.282;14.398;2022-11-15T13:08:00;7.40;99.90
2579;DHT22;1299;48.282;14.398;2022-11-15T13:10:32;7.10;99.90
2579;DHT22;1299;48.282;14.398;2022-11-15T13:13:01;7.20;99.90
2579;DHT22;1299;48.282;14.398;2022-11-15T13:15:38;7.40;99.90
2579;DHT22;1299;48.282;14.398;2022-11-15T13:18:39;7.30;99.90
2579;DHT22;1299;48.282;14.398;2022-11-15T13:21:21;7.10;99.90
2579;DHT22;1299;48.282;14.398;2022-11-15T13:24:14;7.30;99.90
2579;DHT22;1299;48.282;14.398;2022-11-15T13:26:42;7.60;99.90
2579;DHT22;1299;48.282;14.398;2022-11-15T13:29:16;7.70;99.90
2579;DHT22;1299;48.282;14.398;2022-11-15T13:31:45;7.90;99.90
2579;DHT22;1299;48.282;14.398;2022-11-15T13:34:23;7.70;99.90
2579;DHT22;1299;48.282;14.398;2022-11-15T13:36:51;7.30;99.90
2579;DHT22;1299;48.282;14.398;2022-11-15T13:39:28;7.10;99.90
2579;DHT22;1299;48.282;14.398;2022-11-15T13:41:55;7.10;99.90
2579;DHT22;1299;48.282;14.398;2022-11-15T13:44:24;7.10;99.90
2579;DHT22;1299;48.282;14.398;2022-11-15T13:47:04;7.20;99.90
2579;DHT22;1299;48.282;14.398;2022-11-15T13:49:34;7.20;99.90
2579;DHT22;1299;48.282;14.398;2022-11-15T13:52:06;7.50;99.90
2579;DHT22;1299;48.282;14.398;2022-11-15T13:54:37;7.40;99.90
2579;DHT22;1299;48.282;14.398;2022-11-15T13:57:12;7.20;99.90
2579;DHT22;1299;48.282;14.398;2022-11-15T13:59:45;7.20;99.90
2579;DHT22;1299;48.282;14.398;2022-11-15T14:02:16;7.10;99.90
2579;DHT22;1299;48.282;14.398;2022-11-15T14:04:47;7.20;99.90
2579;DHT22;1299;48.282;14.398;2022-11-15T14:07:17;7.10;99.90
2579;DHT22;1299;48.282;14.398;2022-11-15T14:09:47;7.40;99.90
2579;DHT22;1299;48.282;14.398;2022-11-15T14:12:29;7.40;99.90
2579;DHT22;1299;48.282;14.398;2022-11-15T14:14:58;7.40;99.90
2579;DHT22;1299;48.282;14.398;2022-11-15T14:17:37;7.20;99.90
2579;DHT22;1299;48.282;14.398;2022-11-15T14:20:29;7.00;99.90
2579;DHT22;1299;48.282;14.398;2022-11-15T14:22:59;7.20;99.90
2579;DHT22;1299;48.282;14.398;2022-11-15T14:25:29;7.30;99.90
2579;DHT22;1299;48.282;14.398;2022-11-15T14:28:15;7.50;99.90
2579;DHT22;1299;48.282;14.398;2022-11-15T14:30:44;7.70;99.90
2579;DHT22;1299;48.282;14.398;2022-11-15T14:33:21;7.80;99.90
2579;DHT22;1299;48.282;14.398;2022-11-15T14:35:49;7.80;99.90
2579;DHT22;1299;48.282;14.398;2022-11-15T14:38:16;7.80;99.90
2579;DHT22;1299;48.282;14.398;2022-11-15T14:40:45;7.60;99.90
2579;DHT22;1299;48.282;14.398;2022-11-15T14:43:13;7.50;99.90
2579;DHT22;1299;48.282;14.398;2022-11-15T14:45:41;7.60;99.90
2579;DHT22;1299;48.282;14.398;2022-11-15T14:48:09;7.50;99.90
2579;DHT22;1299;48.282;14.398;2022-11-15T14:50:36;7.50;99.90
2579;DHT22;1299;48.282;14.398;2022-11-15T14:53:04;7.50;99.90
2579;DHT22;1299;48.282;14.398;2022-11-15T14:55:33;7.40;99.90
2579;DHT22;1299;48.282;14.398;2022-11-15T14:58:03;7.60;99.90
2579;DHT22;1299;48.282;14.398;2022-11-15T15:00:34;7.40;99.90
2579;DHT22;1299;48.282;14.398;2022-11-15T15:03:02;7.30;99.90
2579;DHT22;1299;48.282;14.398;2022-11-15T15:05:31;7.10;99.90
2579;DHT22;1299;48.282;14.398;2022-11-15T15:07:59;7.20;99.90
2579;DHT22;1299;48.282;14.398;2022-11-15T15:10:32;7.10;99.90
2579;DHT22;1299;48.282;14.398;2022-11-15T15:13:03;7.00;99.90
2579;DHT22;1299;48.282;14.398;2022-11-15T15:15:34;7.10;99.90
2579;DHT22;1299;48.282;14.398;2022-11-15T15:18:01;7.10;99.90
2579;DHT22;1299;48.282;14.398;2022-11-15T15:20:30;7.10;99.90
2579;DHT22;1299;48.282;14.398;2022-11-15T15:22:57;7.00;99.90
2579;DHT22;1299;48.282;14.398;2022-11-15T15:25:27;7.00;99.90
2579;DHT22;1299;48.282;14.398;2022-11-15T15:27:55;7.00;99.90
2579;DHT22;1299;48.282;14.398;2022-11-15T15:30:26;6.90;99.90
2579;DHT22;1299;48.282;14.398;2022-11-15T15:32:54;6.90;99.90
2579;DHT22;1299;48.282;14.398;2022-11-15T15:35:22;7.10;99.90
2579;DHT22;1299;48.282;14.398;2022-11-15T15:37:49;7.10;99.90
2579;DHT22;1299;48.282;14.398;2022-11-15T15:40:19;7.30;99.90
2579;DHT22;1299;48.282;14.398;2022-11-15T15:42:47;7.50;99.90
2579;DHT22;1299;48.282;14.398;2022-11-15T15:45:15;7.30;99.90
2579;DHT22;1299;48.282;14.398;2022-11-15T15:47:45;7.30;99.90
2579;DHT22;1299;48.282;14.398;2022-11-15T15:50:20;7.30;99.90
2579;DHT22;1299;48.282;14.398;2022-11-15T15:52:48;7.20;99.90
2579;DHT22;1299;48.282;14.398;2022-11-15T15:55:16;7.40;99.90
2579;DHT22;1299;48.282;14.398;2022-11-15T15:57:43;7.40;99.90
2579;DHT22;1299;48.282;14.398;2022-11-15T16:00:12;7.20;99.90
2579;DHT22;1299;48.282;14.398;2022-11-15T16:02:39;7.20;99.90
2579;DHT22;1299;48.282;14.398;2022-11-15T16:05:09;7.10;99.90
2579;DHT22;1299;48.282;14.398;2022-11-15T16:07:37;7.10;99.90
2579;DHT22;1299;48.282;14.398;2022-11-15T16:10:18;7.30;99.90
2579;DHT22;1299;48.282;14.398;2022-11-15T16:12:45;7.10;99.90
2579;DHT22;1299;48.282;14.398;2022-11-15T16:15:13;7.20;99.90
2579;DHT22;1299;48.282;14.398;2022-11-15T16:17:43;7.20;99.90
2579;DHT22;1299;48.282;14.398;2022-11-15T16:20:28;7.10;99.90
2579;DHT22;1299;48.282;14.398;2022-11-15T16:22:56;7.10;99.90
2579;DHT22;1299;48.282;14.398;2022-11-15T16:25:23;7.20;99.90
2579;DHT22;1299;48.282;14.398;2022-11-15T16:27:51;7.20;99.90
2579;DHT22;1299;48.282;14.398;2022-11-15T16:30:20;7.20;99.90
2579;DHT22;1299;48.282;14.398;2022-11-15T16:32:48;7.10;99.90
2579;DHT22;1299;48.282;14.398;2022-11-15T16:35:17;7.10;99.90
2579;DHT22;1299;48.282;14.398;2022-11-15T16:37:44;7.10;99.90
2579;DHT22;1299;48.282;14.398;2022-11-15T16:40:26;7.00;99.90
2579;DHT22;1299;48.282;14.398;2022-11-15T16:42:54;7.10;99.90